sensor_id;sensor_type;location;lat;lon;timestamp;P1;durP1;ratioP1;P2;durP2;ratioP2
60436;SDS011;46289;51.992;4.498;2024-01-11T00:00:05;7.80;;;5.40;;
60436;SDS011;46289;51.992;4.498;2024-01-11T00:02:14;6.47;;;4.55;;
60436;SDS011;46289;51.992;4.498;2024-01-11T00:04:19;10.45;;;6.35;;
60436;SDS011;46289;51.992;4.498;2024-01-11T00:06:24;4.90;;;4.32;;
60436;SDS011;46289;51.992;4.498;2024-01-11T00:08:30;7.50;;;5.38;;
60436;SDS011;46289;51.992;4.498;2024-01-11T00:10:36;9.40;;;5.72;;
60436;SDS011;46289;51.992;4.498;2024-01-11T00:12:41;6.57;;;4.82;;
60436;SDS011;46289;51.992;4.498;2024-01-11T00:14:50;8.07;;;5.22;;
60436;SDS011;46289;51.992;4.498;2024-01-11T00:16:52;12.40;;;6.00;;
60436;SDS011;46289;51.992;4.498;2024-01-11T00:18:58;8.18;;;6.20;;
60436;SDS011;46289;51.992;4.498;2024-01-11T00:21:04;8.32;;;4.22;;
60436;SDS011;46289;51.992;4.498;2024-01-11T00:23:12;5.72;;;5.20;;
60436;SDS011;46289;51.992;4.498;2024-01-11T00:25:17;8.95;;;4.28;;
60436;SDS011;46289;51.992;4.498;2024-01-11T00:29:25;7.82;;;4.30;;
60436;SDS011;46289;51.992;4.498;2024-01-11T00:31:30;6.53;;;3.83;;
60436;SDS011;46289;51.992;4.498;2024-01-11T00:33:35;9.90;;;4.57;;
60436;SDS011;46289;51.992;4.498;2024-01-11T00:35:41;6.65;;;5.43;;
60436;SDS011;46289;51.992;4.498;2024-01-11T00:37:46;7.80;;;4.47;;
60436;SDS011;46289;51.992;4.498;2024-01-11T00:39:55;6.47;;;4.10;;
60436;SDS011;46289;51.992;4.498;2024-01-11T00:42:00;7.50;;;5.22;;
60436;SDS011;46289;51.992;4.498;2024-01-11T00:44:06;6.88;;;4.28;;
60436;SDS011;46289;51.992;4.498;2024-01-11T00:46:13;11.82;;;5.60;;
60436;SDS011;46289;51.992;4.498;2024-01-11T00:48:18;6.15;;;3.85;;
60436;SDS011;46289;51.992;4.498;2024-01-11T00:50:24;9.00;;;6.95;;
60436;SDS011;46289;51.992;4.498;2024-01-11T00:52:29;9.20;;;5.25;;
60436;SDS011;46289;51.992;4.498;2024-01-11T00:54:35;9.07;;;4.88;;
60436;SDS011;46289;51.992;4.498;2024-01-11T00:56:43;12.80;;;6.55;;
60436;SDS011;46289;51.992;4.498;2024-01-11T00:58:48;8.02;;;5.45;;
60436;SDS011;46289;51.992;4.498;2024-01-11T01:00:54;10.93;;;6.28;;
60436;SDS011;46289;51.992;4.498;2024-01-11T01:02:59;6.30;;;3.78;;
60436;SDS011;46289;51.992;4.498;2024-01-11T01:05:05;6.25;;;4.00;;
60436;SDS011;46289;51.992;4.498;2024-01-11T01:07:17;7.30;;;4.40;;
60436;SDS011;46289;51.992;4.498;2024-01-11T01:09:24;6.55;;;4.82;;
60436;SDS011;46289;51.992;4.498;2024-01-11T01:11:30;9.40;;;5.78;;
60436;SDS011;46289;51.992;4.498;2024-01-11T01:13:38;7.53;;;4.43;;
60436;SDS011;46289;51.992;4.498;2024-01-11T01:15:43;6.40;;;5.38;;
60436;SDS011;46289;51.992;4.498;2024-01-11T01:17:48;9.23;;;5.22;;
60436;SDS011;46289;51.992;4.498;2024-01-11T01:19:54;9.20;;;4.65;;
60436;SDS011;46289;51.992;4.498;2024-01-11T01:21:59;11.80;;;7.32;;
60436;SDS011;46289;51.992;4.498;2024-01-11T01:24:04;7.93;;;5.53;;
60436;SDS011;46289;51.992;4.498;2024-01-11T01:26:09;11.25;;;4.60;;
60436;SDS011;46289;51.992;4.498;2024-01-11T01:30:22;10.13;;;5.63;;
60436;SDS011;46289;51.992;4.498;2024-01-11T01:32:28;8.68;;;6.55;;
60436;SDS011;46289;51.992;4.498;2024-01-11T01:34:34;7.57;;;3.42;;
60436;SDS011;46289;51.992;4.498;2024-01-11T01:36:42;9.95;;;6.18;;
60436;SDS011;46289;51.992;4.498;2024-01-11T01:38:50;11.48;;;6.20;;
60436;SDS011;46289;51.992;4.498;2024-01-11T01:40:55;9.82;;;5.90;;
60436;SDS011;46289;51.992;4.498;2024-01-11T01:43:01;14.38;;;6.40;;
60436;SDS011;46289;51.992;4.498;2024-01-11T01:45:12;9.32;;;4.72;;
60436;SDS011;46289;51.992;4.498;2024-01-11T01:47:24;10.60;;;4.15;;
60436;SDS011;46289;51.992;4.498;2024-01-11T01:49:30;8.00;;;5.00;;
60436;SDS011;46289;51.992;4.498;2024-01-11T01:51:36;11.70;;;6.07;;
60436;SDS011;46289;51.992;4.498;2024-01-11T01:53:44;11.80;;;6.90;;
60436;SDS011;46289;51.992;4.498;2024-01-11T01:55:53;9.02;;;5.88;;
60436;SDS011;46289;51.992;4.498;2024-01-11T01:57:59;11.15;;;5.72;;
60436;SDS011;46289;51.992;4.498;2024-01-11T02:00:05;7.90;;;5.80;;
60436;SDS011;46289;51.992;4.498;2024-01-11T02:02:13;13.48;;;8.02;;
60436;SDS011;46289;51.992;4.498;2024-01-11T02:04:24;15.25;;;5.97;;
60436;SDS011;46289;51.992;4.498;2024-01-11T02:06:29;12.48;;;6.88;;
60436;SDS011;46289;51.992;4.498;2024-01-11T02:08:39;10.45;;;6.10;;
60436;SDS011;46289;51.992;4.498;2024-01-11T02:10:46;8.52;;;5.78;;
60436;SDS011;46289;51.992;4.498;2024-01-11T02:12:52;13.77;;;5.90;;
60436;SDS011;46289;51.992;4.498;2024-01-11T02:14:56;10.75;;;4.80;;
60436;SDS011;46289;51.992;4.498;2024-01-11T02:17:01;6.22;;;4.45;;
60436;SDS011;46289;51.992;4.498;2024-01-11T02:19:06;15.40;;;5.65;;
60436;SDS011;46289;51.992;4.498;2024-01-11T02:21:16;10.93;;;6.15;;
60436;SDS011;46289;51.992;4.498;2024-01-11T02:23:22;9.82;;;5.93;;
60436;SDS011;46289;51.992;4.498;2024-01-11T02:25:36;16.77;;;9.27;;
60436;SDS011;46289;51.992;4.498;2024-01-11T02:27:47;11.50;;;6.68;;
60436;SDS011;46289;51.992;4.498;2024-01-11T02:29:54;11.35;;;5.10;;
60436;SDS011;46289;51.992;4.498;2024-01-11T02:32:00;9.75;;;6.75;;
60436;SDS011;46289;51.992;4.498;2024-01-11T02:34:08;10.35;;;4.93;;
60436;SDS011;46289;51.992;4.498;2024-01-11T02:36:15;8.02;;;4.63;;
60436;SDS011;46289;51.992;4.498;2024-01-11T02:38:21;11.48;;;5.70;;
60436;SDS011;46289;51.992;4.498;2024-01-11T02:40:27;11.95;;;5.88;;
60436;SDS011;46289;51.992;4.498;2024-01-11T02:42:36;10.98;;;6.10;;
60436;SDS011;46289;51.992;4.498;2024-01-11T02:44:41;20.13;;;6.72;;
60436;SDS011;46289;51.992;4.498;2024-01-11T02:46:47;18.58;;;6.32;;
60436;SDS011;46289;51.992;4.498;2024-01-11T02:48:52;10.32;;;6.25;;
60436;SDS011;46289;51.992;4.498;2024-01-11T02:50:57;8.88;;;5.32;;
60436;SDS011;46289;51.992;4.498;2024-01-11T02:53:02;13.65;;;6.05;;
60436;SDS011;46289;51.992;4.498;2024-01-11T02:55:08;11.60;;;6.13;;
60436;SDS011;46289;51.992;4.498;2024-01-11T02:57:11;18.02;;;6.43;;
60436;SDS011;46289;51.992;4.498;2024-01-11T02:59:19;13.88;;;7.70;;
60436;SDS011;46289;51.992;4.498;2024-01-11T03:01:22;8.98;;;5.47;;
60436;SDS011;46289;51.992;4.498;2024-01-11T03:03:27;15.55;;;6.47;;
60436;SDS011;46289;51.992;4.498;2024-01-11T03:05:33;11.85;;;6.57;;
60436;SDS011;46289;51.992;4.498;2024-01-11T03:07:38;13.90;;;7.10;;
60436;SDS011;46289;51.992;4.498;2024-01-11T03:09:44;14.68;;;6.63;;
60436;SDS011;46289;51.992;4.498;2024-01-11T03:11:49;15.23;;;5.57;;
60436;SDS011;46289;51.992;4.498;2024-01-11T03:13:54;20.33;;;6.95;;
60436;SDS011;46289;51.992;4.498;2024-01-11T03:16:02;10.90;;;6.32;;
60436;SDS011;46289;51.992;4.498;2024-01-11T03:18:09;10.27;;;5.97;;
60436;SDS011;46289;51.992;4.498;2024-01-11T03:20:15;18.52;;;7.13;;
60436;SDS011;46289;51.992;4.498;2024-01-11T03:22:26;15.32;;;6.68;;
60436;SDS011;46289;51.992;4.498;2024-01-11T03:24:31;17.33;;;5.97;;
60436;SDS011;46289;51.992;4.498;2024-01-11T03:26:36;14.85;;;8.90;;
60436;SDS011;46289;51.992;4.498;2024-01-11T03:28:42;17.33;;;6.85;;
60436;SDS011;46289;51.992;4.498;2024-01-11T03:30:47;15.32;;;5.85;;
60436;SDS011;46289;51.992;4.498;2024-01-11T03:32:55;13.48;;;7.00;;
60436;SDS011;46289;51.992;4.498;2024-01-11T03:35:02;11.90;;;8.15;;
60436;SDS011;46289;51.992;4.498;2024-01-11T03:37:08;9.07;;;6.50;;
60436;SDS011;46289;51.992;4.498;2024-01-11T03:39:14;13.05;;;8.02;;
60436;SDS011;46289;51.992;4.498;2024-01-11T03:41:22;12.82;;;7.68;;
60436;SDS011;46289;51.992;4.498;2024-01-11T03:43:27;12.27;;;7.03;;
60436;SDS011;46289;51.992;4.498;2024-01-11T03:45:33;13.55;;;6.53;;
60436;SDS011;46289;51.992;4.498;2024-01-11T03:47:38;8.98;;;7.10;;
60436;SDS011;46289;51.992;4.498;2024-01-11T03:49:46;15.65;;;8.70;;
60436;SDS011;46289;51.992;4.498;2024-01-11T03:51:52;11.05;;;7.40;;
60436;SDS011;46289;51.992;4.498;2024-01-11T03:53:57;8.45;;;7.32;;
60436;SDS011;46289;51.992;4.498;2024-01-11T03:56:02;10.77;;;5.80;;
60436;SDS011;46289;51.992;4.498;2024-01-11T03:58:05;12.07;;;6.38;;
60436;SDS011;46289;51.992;4.498;2024-01-11T04:00:13;12.60;;;6.40;;
60436;SDS011;46289;51.992;4.498;2024-01-11T04:02:21;10.05;;;5.88;;
60436;SDS011;46289;51.992;4.498;2024-01-11T04:04:25;10.32;;;6.88;;
60436;SDS011;46289;51.992;4.498;2024-01-11T04:06:33;14.20;;;7.63;;
60436;SDS011;46289;51.992;4.498;2024-01-11T04:08:38;13.93;;;7.60;;
60436;SDS011;46289;51.992;4.498;2024-01-11T04:10:43;10.52;;;4.78;;
60436;SDS011;46289;51.992;4.498;2024-01-11T04:12:46;12.85;;;8.15;;
60436;SDS011;46289;51.992;4.498;2024-01-11T04:14:52;10.35;;;6.72;;
60436;SDS011;46289;51.992;4.498;2024-01-11T04:16:57;11.13;;;5.53;;
60436;SDS011;46289;51.992;4.498;2024-01-11T04:19:00;17.52;;;6.60;;
60436;SDS011;46289;51.992;4.498;2024-01-11T04:21:06;14.68;;;6.65;;
60436;SDS011;46289;51.992;4.498;2024-01-11T04:23:13;16.98;;;7.18;;
60436;SDS011;46289;51.992;4.498;2024-01-11T04:25:18;12.15;;;7.35;;
60436;SDS011;46289;51.992;4.498;2024-01-11T04:27:27;12.82;;;8.65;;
60436;SDS011;46289;51.992;4.498;2024-01-11T04:29:32;12.77;;;7.40;;
60436;SDS011;46289;51.992;4.498;2024-01-11T04:31:37;9.77;;;7.30;;
60436;SDS011;46289;51.992;4.498;2024-01-11T04:33:40;10.98;;;6.70;;
60436;SDS011;46289;51.992;4.498;2024-01-11T04:35:49;18.38;;;8.15;;
60436;SDS011;46289;51.992;4.498;2024-01-11T04:37:55;9.82;;;7.30;;
60436;SDS011;46289;51.992;4.498;2024-01-11T04:40:03;19.02;;;7.85;;
60436;SDS011;46289;51.992;4.498;2024-01-11T04:42:09;20.98;;;12.63;;
60436;SDS011;46289;51.992;4.498;2024-01-11T04:44:17;11.27;;;4.47;;
60436;SDS011;46289;51.992;4.498;2024-01-11T04:46:19;13.32;;;6.85;;
60436;SDS011;46289;51.992;4.498;2024-01-11T04:48:26;13.55;;;7.07;;
60436;SDS011;46289;51.992;4.498;2024-01-11T04:50:31;11.85;;;7.13;;
60436;SDS011;46289;51.992;4.498;2024-01-11T04:52:37;18.02;;;9.82;;
60436;SDS011;46289;51.992;4.498;2024-01-11T04:54:43;22.95;;;7.47;;
60436;SDS011;46289;51.992;4.498;2024-01-11T04:56:51;18.77;;;10.10;;
60436;SDS011;46289;51.992;4.498;2024-01-11T04:58:56;10.02;;;7.18;;
60436;SDS011;46289;51.992;4.498;2024-01-11T05:01:00;18.40;;;10.02;;
60436;SDS011;46289;51.992;4.498;2024-01-11T05:03:06;18.58;;;9.25;;
60436;SDS011;46289;51.992;4.498;2024-01-11T05:05:12;17.80;;;6.78;;
60436;SDS011;46289;51.992;4.498;2024-01-11T05:07:20;17.50;;;10.07;;
60436;SDS011;46289;51.992;4.498;2024-01-11T05:09:25;13.88;;;9.25;;
60436;SDS011;46289;51.992;4.498;2024-01-11T05:11:31;12.88;;;8.32;;
60436;SDS011;46289;51.992;4.498;2024-01-11T05:13:39;21.02;;;9.82;;
60436;SDS011;46289;51.992;4.498;2024-01-11T05:15:44;18.42;;;9.00;;
60436;SDS011;46289;51.992;4.498;2024-01-11T05:17:50;12.25;;;8.18;;
60436;SDS011;46289;51.992;4.498;2024-01-11T05:19:56;11.23;;;7.47;;
60436;SDS011;46289;51.992;4.498;2024-01-11T05:22:02;15.77;;;8.20;;
60436;SDS011;46289;51.992;4.498;2024-01-11T05:24:08;11.75;;;7.93;;
60436;SDS011;46289;51.992;4.498;2024-01-11T05:26:13;17.30;;;7.63;;
60436;SDS011;46289;51.992;4.498;2024-01-11T05:28:19;17.95;;;8.63;;
60436;SDS011;46289;51.992;4.498;2024-01-11T05:30:25;13.73;;;8.63;;
60436;SDS011;46289;51.992;4.498;2024-01-11T05:32:32;18.52;;;7.93;;
60436;SDS011;46289;51.992;4.498;2024-01-11T05:34:39;12.77;;;7.65;;
60436;SDS011;46289;51.992;4.498;2024-01-11T05:36:44;19.65;;;8.27;;
60436;SDS011;46289;51.992;4.498;2024-01-11T05:38:49;15.20;;;9.02;;
60436;SDS011;46289;51.992;4.498;2024-01-11T05:40:55;14.23;;;9.60;;
60436;SDS011;46289;51.992;4.498;2024-01-11T05:43:01;15.20;;;8.82;;
60436;SDS011;46289;51.992;4.498;2024-01-11T05:45:06;12.98;;;8.35;;
60436;SDS011;46289;51.992;4.498;2024-01-11T05:47:21;15.82;;;7.15;;
60436;SDS011;46289;51.992;4.498;2024-01-11T05:49:27;24.05;;;10.13;;
60436;SDS011;46289;51.992;4.498;2024-01-11T05:51:32;16.55;;;8.45;;
60436;SDS011;46289;51.992;4.498;2024-01-11T05:53:37;15.98;;;7.15;;
60436;SDS011;46289;51.992;4.498;2024-01-11T05:55:40;17.02;;;11.15;;
60436;SDS011;46289;51.992;4.498;2024-01-11T05:57:45;15.50;;;10.18;;
60436;SDS011;46289;51.992;4.498;2024-01-11T05:59:50;16.95;;;7.18;;
60436;SDS011;46289;51.992;4.498;2024-01-11T06:01:58;7.82;;;5.53;;
60436;SDS011;46289;51.992;4.498;2024-01-11T06:04:06;17.95;;;9.50;;
60436;SDS011;46289;51.992;4.498;2024-01-11T06:06:12;10.45;;;7.13;;
60436;SDS011;46289;51.992;4.498;2024-01-11T06:08:19;13.65;;;8.48;;
60436;SDS011;46289;51.992;4.498;2024-01-11T06:10:25;18.05;;;9.40;;
60436;SDS011;46289;51.992;4.498;2024-01-11T06:12:27;18.23;;;7.03;;
60436;SDS011;46289;51.992;4.498;2024-01-11T06:14:32;18.48;;;9.75;;
60436;SDS011;46289;51.992;4.498;2024-01-11T06:16:38;15.00;;;10.05;;
60436;SDS011;46289;51.992;4.498;2024-01-11T06:18:45;11.15;;;8.10;;
60436;SDS011;46289;51.992;4.498;2024-01-11T06:20:52;14.57;;;9.18;;
60436;SDS011;46289;51.992;4.498;2024-01-11T06:22:58;17.77;;;10.65;;
60436;SDS011;46289;51.992;4.498;2024-01-11T06:27:05;12.07;;;8.25;;
60436;SDS011;46289;51.992;4.498;2024-01-11T06:29:13;16.33;;;9.52;;
60436;SDS011;46289;51.992;4.498;2024-01-11T06:31:18;14.98;;;5.88;;
60436;SDS011;46289;51.992;4.498;2024-01-11T06:33:21;22.35;;;8.90;;
60436;SDS011;46289;51.992;4.498;2024-01-11T06:35:27;11.25;;;6.13;;
60436;SDS011;46289;51.992;4.498;2024-01-11T06:37:35;8.95;;;6.65;;
60436;SDS011;46289;51.992;4.498;2024-01-11T06:39:43;12.82;;;7.65;;
60436;SDS011;46289;51.992;4.498;2024-01-11T06:41:48;16.05;;;9.40;;
60436;SDS011;46289;51.992;4.498;2024-01-11T06:43:54;15.40;;;8.07;;
60436;SDS011;46289;51.992;4.498;2024-01-11T06:46:02;12.38;;;9.30;;
60436;SDS011;46289;51.992;4.498;2024-01-11T06:48:05;20.67;;;9.25;;
60436;SDS011;46289;51.992;4.498;2024-01-11T06:50:14;8.88;;;5.85;;
60436;SDS011;46289;51.992;4.498;2024-01-11T06:52:20;13.25;;;8.35;;
60436;SDS011;46289;51.992;4.498;2024-01-11T06:54:33;23.00;;;11.55;;
60436;SDS011;46289;51.992;4.498;2024-01-11T06:56:39;11.48;;;8.80;;
60436;SDS011;46289;51.992;4.498;2024-01-11T06:58:44;9.30;;;7.45;;
60436;SDS011;46289;51.992;4.498;2024-01-11T07:00:51;16.60;;;9.82;;
60436;SDS011;46289;51.992;4.498;2024-01-11T07:02:58;14.88;;;7.80;;
60436;SDS011;46289;51.992;4.498;2024-01-11T07:05:05;20.40;;;10.23;;
60436;SDS011;46289;51.992;4.498;2024-01-11T07:07:11;12.73;;;9.95;;
60436;SDS011;46289;51.992;4.498;2024-01-11T07:09:19;16.60;;;9.38;;
60436;SDS011;46289;51.992;4.498;2024-01-11T07:11:28;24.38;;;11.10;;
60436;SDS011;46289;51.992;4.498;2024-01-11T07:13:35;26.45;;;10.25;;
60436;SDS011;46289;51.992;4.498;2024-01-11T07:15:43;11.88;;;8.27;;
60436;SDS011;46289;51.992;4.498;2024-01-11T07:17:49;17.02;;;10.98;;
60436;SDS011;46289;51.992;4.498;2024-01-11T07:19:56;19.65;;;9.65;;
60436;SDS011;46289;51.992;4.498;2024-01-11T07:22:02;27.83;;;12.10;;
60436;SDS011;46289;51.992;4.498;2024-01-11T07:24:08;27.45;;;7.97;;
60436;SDS011;46289;51.992;4.498;2024-01-11T07:26:14;27.35;;;10.80;;
60436;SDS011;46289;51.992;4.498;2024-01-11T07:28:22;21.83;;;11.18;;
60436;SDS011;46289;51.992;4.498;2024-01-11T07:30:28;23.35;;;10.43;;
60436;SDS011;46289;51.992;4.498;2024-01-11T07:32:32;22.00;;;12.55;;
60436;SDS011;46289;51.992;4.498;2024-01-11T07:34:37;15.13;;;9.98;;
60436;SDS011;46289;51.992;4.498;2024-01-11T07:36:45;21.38;;;11.00;;
60436;SDS011;46289;51.992;4.498;2024-01-11T07:38:50;25.42;;;12.45;;
60436;SDS011;46289;51.992;4.498;2024-01-11T07:40:56;17.20;;;10.27;;
60436;SDS011;46289;51.992;4.498;2024-01-11T07:43:01;23.85;;;10.30;;
60436;SDS011;46289;51.992;4.498;2024-01-11T07:45:10;16.95;;;8.18;;
60436;SDS011;46289;51.992;4.498;2024-01-11T07:47:19;22.42;;;11.10;;
60436;SDS011;46289;51.992;4.498;2024-01-11T07:49:24;20.48;;;12.65;;
60436;SDS011;46289;51.992;4.498;2024-01-11T07:51:28;20.05;;;11.88;;
60436;SDS011;46289;51.992;4.498;2024-01-11T07:53:33;23.33;;;12.38;;
60436;SDS011;46289;51.992;4.498;2024-01-11T07:55:38;20.15;;;11.38;;
60436;SDS011;46289;51.992;4.498;2024-01-11T07:57:43;22.30;;;12.20;;
60436;SDS011;46289;51.992;4.498;2024-01-11T07:59:49;17.85;;;12.18;;
60436;SDS011;46289;51.992;4.498;2024-01-11T08:01:57;23.05;;;9.60;;
60436;SDS011;46289;51.992;4.498;2024-01-11T08:04:03;22.73;;;10.73;;
60436;SDS011;46289;51.992;4.498;2024-01-11T08:06:08;31.70;;;16.10;;
60436;SDS011;46289;51.992;4.498;2024-01-11T08:08:15;21.65;;;10.82;;
60436;SDS011;46289;51.992;4.498;2024-01-11T08:10:23;18.40;;;11.18;;
60436;SDS011;46289;51.992;4.498;2024-01-11T08:12:30;32.88;;;15.98;;
60436;SDS011;46289;51.992;4.498;2024-01-11T08:14:36;15.35;;;11.10;;
60436;SDS011;46289;51.992;4.498;2024-01-11T08:16:43;31.17;;;14.00;;
60436;SDS011;46289;51.992;4.498;2024-01-11T08:18:54;17.45;;;11.20;;
60436;SDS011;46289;51.992;4.498;2024-01-11T08:21:03;16.80;;;9.77;;
60436;SDS011;46289;51.992;4.498;2024-01-11T08:23:11;25.40;;;9.63;;
60436;SDS011;46289;51.992;4.498;2024-01-11T08:25:17;24.52;;;11.30;;
60436;SDS011;46289;51.992;4.498;2024-01-11T08:27:24;18.08;;;9.65;;
60436;SDS011;46289;51.992;4.498;2024-01-11T08:29:33;22.92;;;11.15;;
60436;SDS011;46289;51.992;4.498;2024-01-11T08:31:38;22.25;;;12.15;;
60436;SDS011;46289;51.992;4.498;2024-01-11T08:33:45;23.52;;;13.57;;
60436;SDS011;46289;51.992;4.498;2024-01-11T08:35:56;20.05;;;11.18;;
60436;SDS011;46289;51.992;4.498;2024-01-11T08:38:02;19.33;;;10.23;;
60436;SDS011;46289;51.992;4.498;2024-01-11T08:40:08;22.77;;;11.85;;
60436;SDS011;46289;51.992;4.498;2024-01-11T08:42:13;24.27;;;12.88;;
60436;SDS011;46289;51.992;4.498;2024-01-11T08:44:17;25.88;;;11.50;;
60436;SDS011;46289;51.992;4.498;2024-01-11T08:46:25;18.35;;;11.30;;
60436;SDS011;46289;51.992;4.498;2024-01-11T08:48:32;21.20;;;10.98;;
60436;SDS011;46289;51.992;4.498;2024-01-11T08:50:38;17.58;;;12.05;;
60436;SDS011;46289;51.992;4.498;2024-01-11T08:52:48;17.35;;;10.38;;
60436;SDS011;46289;51.992;4.498;2024-01-11T08:54:55;26.98;;;12.90;;
60436;SDS011;46289;51.992;4.498;2024-01-11T08:57:02;20.75;;;11.88;;
60436;SDS011;46289;51.992;4.498;2024-01-11T08:59:07;18.98;;;13.45;;
60436;SDS011;46289;51.992;4.498;2024-01-11T09:01:15;22.30;;;12.65;;
60436;SDS011;46289;51.992;4.498;2024-01-11T09:03:24;22.42;;;12.70;;
60436;SDS011;46289;51.992;4.498;2024-01-11T09:05:30;31.30;;;15.85;;
60436;SDS011;46289;51.992;4.498;2024-01-11T09:07:35;25.63;;;14.70;;
60436;SDS011;46289;51.992;4.498;2024-01-11T09:09:50;36.60;;;17.35;;
60436;SDS011;46289;51.992;4.498;2024-01-11T09:11:58;24.77;;;15.68;;
60436;SDS011;46289;51.992;4.498;2024-01-11T09:14:00;31.58;;;13.77;;
60436;SDS011;46289;51.992;4.498;2024-01-11T09:16:06;33.35;;;18.38;;
60436;SDS011;46289;51.992;4.498;2024-01-11T09:18:12;37.60;;;16.10;;
60436;SDS011;46289;51.992;4.498;2024-01-11T09:20:20;31.98;;;16.27;;
60436;SDS011;46289;51.992;4.498;2024-01-11T09:22:30;38.45;;;19.50;;
60436;SDS011;46289;51.992;4.498;2024-01-11T09:24:36;29.50;;;16.15;;
60436;SDS011;46289;51.992;4.498;2024-01-11T09:26:44;38.25;;;19.50;;
60436;SDS011;46289;51.992;4.498;2024-01-11T09:28:53;36.55;;;17.45;;
60436;SDS011;46289;51.992;4.498;2024-01-11T09:30:59;33.05;;;16.02;;
60436;SDS011;46289;51.992;4.498;2024-01-11T09:33:04;31.45;;;16.63;;
60436;SDS011;46289;51.992;4.498;2024-01-11T09:35:09;32.78;;;17.77;;
60436;SDS011;46289;51.992;4.498;2024-01-11T09:37:24;35.20;;;17.60;;
60436;SDS011;46289;51.992;4.498;2024-01-11T09:39:30;35.10;;;17.63;;
60436;SDS011;46289;51.992;4.498;2024-01-11T09:41:35;31.83;;;16.98;;
60436;SDS011;46289;51.992;4.498;2024-01-11T09:43:48;35.45;;;15.90;;
60436;SDS011;46289;51.992;4.498;2024-01-11T09:45:57;37.70;;;16.63;;
60436;SDS011;46289;51.992;4.498;2024-01-11T09:48:05;30.88;;;14.45;;
60436;SDS011;46289;51.992;4.498;2024-01-11T09:50:14;25.77;;;16.00;;
60436;SDS011;46289;51.992;4.498;2024-01-11T09:52:22;24.00;;;14.48;;
60436;SDS011;46289;51.992;4.498;2024-01-11T09:54:33;25.53;;;11.23;;
60436;SDS011;46289;51.992;4.498;2024-01-11T09:56:37;32.65;;;12.43;;
60436;SDS011;46289;51.992;4.498;2024-01-11T09:58:46;30.00;;;14.55;;
60436;SDS011;46289;51.992;4.498;2024-01-11T10:00:56;23.57;;;12.47;;
60436;SDS011;46289;51.992;4.498;2024-01-11T10:03:02;29.10;;;11.50;;
60436;SDS011;46289;51.992;4.498;2024-01-11T10:05:08;38.13;;;15.07;;
60436;SDS011;46289;51.992;4.498;2024-01-11T10:07:16;20.33;;;10.48;;
60436;SDS011;46289;51.992;4.498;2024-01-11T10:09:23;24.00;;;11.70;;
60436;SDS011;46289;51.992;4.498;2024-01-11T10:11:28;24.45;;;11.23;;
60436;SDS011;46289;51.992;4.498;2024-01-11T10:13:35;28.50;;;14.38;;
60436;SDS011;46289;51.992;4.498;2024-01-11T10:15:44;25.70;;;14.05;;
60436;SDS011;46289;51.992;4.498;2024-01-11T10:17:50;30.42;;;13.63;;
60436;SDS011;46289;51.992;4.498;2024-01-11T10:19:56;28.48;;;13.23;;
60436;SDS011;46289;51.992;4.498;2024-01-11T10:22:03;24.33;;;13.63;;
60436;SDS011;46289;51.992;4.498;2024-01-11T10:24:08;24.40;;;12.70;;
60436;SDS011;46289;51.992;4.498;2024-01-11T10:26:15;28.42;;;14.75;;
60436;SDS011;46289;51.992;4.498;2024-01-11T10:28:22;27.92;;;12.65;;
60436;SDS011;46289;51.992;4.498;2024-01-11T10:30:24;32.53;;;15.02;;
60436;SDS011;46289;51.992;4.498;2024-01-11T10:32:32;32.72;;;12.30;;
60436;SDS011;46289;51.992;4.498;2024-01-11T10:34:45;20.60;;;10.35;;
60436;SDS011;46289;51.992;4.498;2024-01-11T10:36:53;25.40;;;12.73;;
60436;SDS011;46289;51.992;4.498;2024-01-11T10:39:00;23.73;;;13.07;;
60436;SDS011;46289;51.992;4.498;2024-01-11T10:41:09;23.73;;;11.82;;
60436;SDS011;46289;51.992;4.498;2024-01-11T10:43:19;30.65;;;13.32;;
60436;SDS011;46289;51.992;4.498;2024-01-11T10:45:28;29.27;;;15.05;;
60436;SDS011;46289;51.992;4.498;2024-01-11T10:47:43;30.40;;;12.32;;
60436;SDS011;46289;51.992;4.498;2024-01-11T10:49:56;28.40;;;13.98;;
60436;SDS011;46289;51.992;4.498;2024-01-11T10:52:07;26.65;;;13.57;;
60436;SDS011;46289;51.992;4.498;2024-01-11T10:54:15;23.92;;;11.40;;
60436;SDS011;46289;51.992;4.498;2024-01-11T10:56:22;30.92;;;14.40;;
60436;SDS011;46289;51.992;4.498;2024-01-11T10:58:29;36.20;;;15.38;;
60436;SDS011;46289;51.992;4.498;2024-01-11T11:00:37;24.23;;;13.48;;
60436;SDS011;46289;51.992;4.498;2024-01-11T11:02:39;25.92;;;13.07;;
60436;SDS011;46289;51.992;4.498;2024-01-11T11:04:52;24.42;;;12.68;;
60436;SDS011;46289;51.992;4.498;2024-01-11T11:07:00;27.67;;;14.10;;
60436;SDS011;46289;51.992;4.498;2024-01-11T11:09:08;24.40;;;12.38;;
60436;SDS011;46289;51.992;4.498;2024-01-11T11:11:19;27.63;;;12.45;;
60436;SDS011;46289;51.992;4.498;2024-01-11T11:13:26;30.67;;;13.25;;
60436;SDS011;46289;51.992;4.498;2024-01-11T11:15:37;25.70;;;12.48;;
60436;SDS011;46289;51.992;4.498;2024-01-11T11:17:46;27.98;;;13.55;;
60436;SDS011;46289;51.992;4.498;2024-01-11T11:19:51;28.33;;;12.27;;
60436;SDS011;46289;51.992;4.498;2024-01-11T11:21:59;21.65;;;11.88;;
60436;SDS011;46289;51.992;4.498;2024-01-11T11:24:09;19.98;;;10.93;;
60436;SDS011;46289;51.992;4.498;2024-01-11T11:26:14;21.92;;;11.18;;
60436;SDS011;46289;51.992;4.498;2024-01-11T11:28:21;24.98;;;11.95;;
60436;SDS011;46289;51.992;4.498;2024-01-11T11:32:35;21.88;;;11.20;;
60436;SDS011;46289;51.992;4.498;2024-01-11T11:34:43;26.70;;;11.68;;
60436;SDS011;46289;51.992;4.498;2024-01-11T11:36:49;26.98;;;12.45;;
60436;SDS011;46289;51.992;4.498;2024-01-11T11:38:56;19.83;;;10.55;;
60436;SDS011;46289;51.992;4.498;2024-01-11T11:41:03;22.70;;;11.02;;
60436;SDS011;46289;51.992;4.498;2024-01-11T11:43:08;23.08;;;11.43;;
60436;SDS011;46289;51.992;4.498;2024-01-11T11:45:13;22.98;;;10.65;;
60436;SDS011;46289;51.992;4.498;2024-01-11T11:47:34;20.23;;;11.05;;
60436;SDS011;46289;51.992;4.498;2024-01-11T11:49:59;21.55;;;11.25;;
60436;SDS011;46289;51.992;4.498;2024-01-11T11:52:16;19.42;;;9.25;;
60436;SDS011;46289;51.992;4.498;2024-01-11T11:54:22;19.45;;;9.60;;
60436;SDS011;46289;51.992;4.498;2024-01-11T11:56:29;22.38;;;9.32;;
60436;SDS011;46289;51.992;4.498;2024-01-11T11:58:40;21.23;;;10.27;;
60436;SDS011;46289;51.992;4.498;2024-01-11T12:00:46;22.02;;;11.82;;
60436;SDS011;46289;51.992;4.498;2024-01-11T12:02:52;25.65;;;11.40;;
60436;SDS011;46289;51.992;4.498;2024-01-11T12:05:04;20.85;;;9.93;;
60436;SDS011;46289;51.992;4.498;2024-01-11T12:07:09;17.77;;;11.05;;
60436;SDS011;46289;51.992;4.498;2024-01-11T12:09:17;16.20;;;9.40;;
60436;SDS011;46289;51.992;4.498;2024-01-11T12:11:25;20.98;;;9.82;;
60436;SDS011;46289;51.992;4.498;2024-01-11T12:13:31;20.05;;;10.07;;
60436;SDS011;46289;51.992;4.498;2024-01-11T12:15:34;24.55;;;11.18;;
60436;SDS011;46289;51.992;4.498;2024-01-11T12:17:39;22.38;;;12.02;;
60436;SDS011;46289;51.992;4.498;2024-01-11T12:19:45;22.30;;;11.25;;
60436;SDS011;46289;51.992;4.498;2024-01-11T12:21:50;24.00;;;11.85;;
60436;SDS011;46289;51.992;4.498;2024-01-11T12:23:56;17.83;;;10.93;;
60436;SDS011;46289;51.992;4.498;2024-01-11T12:26:02;28.63;;;12.18;;
60436;SDS011;46289;51.992;4.498;2024-01-11T12:28:09;19.77;;;9.52;;
60436;SDS011;46289;51.992;4.498;2024-01-11T12:30:16;15.57;;;8.13;;
60436;SDS011;46289;51.992;4.498;2024-01-11T12:32:22;18.90;;;10.32;;
60436;SDS011;46289;51.992;4.498;2024-01-11T12:34:27;23.40;;;9.73;;
60436;SDS011;46289;51.992;4.498;2024-01-11T12:36:34;20.10;;;9.32;;